Time;durP1;ratioP1;P1;durP2;ratioP2;P2;SDS_P1;SDS_P2;PMS_P1;PMS_P2;Temp;Humidity;BMP_temperature;BMP_pressure;BME280_temperature;BME280_humidity;BME280_pressure;Samples;Min_cycle;Max_cycle;Signal;HPM_P1;HPM_P2
2023/08/01 00:02:27;;;;;;;2.50;1.80;;;;;;;;;;10225834;29;20019;-77
2023/08/01 00:07:27;;;;;;;2.53;1.90;;;;;;;;;;10212476;29;20295;-78
2023/08/01 00:12:27;;;;;;;3.05;1.80;;;;;;;;;;10216339;28;20039;-85
2023/08/01 00:17:28;;;;;;;2.28;1.73;;;;;;;;;;10208919;29;20047;-78
2023/08/01 00:22:29;;;;;;;2.90;2.10;;;;;;;;;;10233330;29;20030;-81
2023/08/01 00:27:36;;;;;;;4.10;1.83;;;;;;;;;;10212770;28;20066;-83
2023/08/01 00:32:37;;;;;;;1.90;1.73;;;;;;;;;;10223322;29;20024;-80
2023/08/01 00:37:39;;;;;;;2.75;2.15;;;;;;;;;;10233055;28;20035;-81
2023/08/01 00:42:43;;;;;;;1.98;1.73;;;;;;;;;;10241872;28;20063;-78
2023/08/01 00:47:55;;;;;;;2.63;1.83;;;;;;;;;;10243410;28;20038;-84
2023/08/01 00:52:55;;;;;;;7.05;2.15;;;;;;;;;;10235611;28;20015;-77
2023/08/01 00:57:58;;;;;;;2.00;1.58;;;;;;;;;;10228137;28;20020;-86
2023/08/01 01:02:58;;;;;;;2.80;1.80;;;;;;;;;;10229001;29;20318;-82
2023/08/01 01:07:59;;;;;;;3.13;2.08;;;;;;;;;;10214119;29;20508;-78
2023/08/01 01:12:59;;;;;;;7.95;2.35;;;;;;;;;;10225061;29;20031;-85
2023/08/01 01:18:01;;;;;;;9.80;2.42;;;;;;;;;;10231829;29;20078;-87
2023/08/01 01:23:09;;;;;;;3.80;2.45;;;;;;;;;;10211673;28;20035;-80
2023/08/01 01:28:10;;;;;;;3.70;2.30;;;;;;;;;;10213417;28;20038;-87
2023/08/01 01:33:12;;;;;;;3.13;2.13;;;;;;;;;;10212632;28;20023;-82
2023/08/01 01:38:27;;;;;;;2.90;1.83;;;;;;;;;;10215750;28;20034;-83
2023/08/01 01:43:28;;;;;;;4.05;2.35;;;;;;;;;;10225707;29;20039;-79
2023/08/01 01:48:32;;;;;;;3.20;2.27;;;;;;;;;;10217618;28;20040;-84
2023/08/01 01:53:32;;;;;;;2.75;2.33;;;;;;;;;;10217306;29;20027;-82
2023/08/01 01:58:32;;;;;;;6.65;2.67;;;;;;;;;;10223168;28;20035;-80
2023/08/01 02:03:40;;;;;;;6.13;2.95;;;;;;;;;;10222580;28;20539;-79
2023/08/01 02:08:45;;;;;;;4.18;2.38;;;;;;;;;;10225624;28;20121;-80
2023/08/01 02:13:45;;;;;;;4.90;2.60;;;;;;;;;;10204198;28;20043;-80
2023/08/01 02:18:46;;;;;;;3.17;2.23;;;;;;;;;;10228147;29;20066;-78
2023/08/01 02:23:46;;;;;;;2.90;2.45;;;;;;;;;;10232233;29;20023;-81
2023/08/01 02:28:46;;;;;;;6.05;2.80;;;;;;;;;;10233511;28;20027;-81
2023/08/01 02:33:47;;;;;;;7.38;2.50;;;;;;;;;;10231539;28;20035;-80
2023/08/01 02:38:48;;;;;;;4.07;2.93;;;;;;;;;;10228450;28;20260;-88
2023/08/01 02:43:49;;;;;;;6.35;3.17;;;;;;;;;;10238690;29;20039;-79
2023/08/01 02:48:49;;;;;;;3.83;3.05;;;;;;;;;;10218745;29;20027;-80
2023/08/01 02:53:49;;;;;;;3.78;2.83;;;;;;;;;;10232973;29;20040;-80
2023/08/01 02:58:51;;;;;;;6.10;3.67;;;;;;;;;;10228861;28;20136;-86
2023/08/01 03:03:53;;;;;;;4.07;3.67;;;;;;;;;;10224143;28;20028;-79
2023/08/01 03:08:54;;;;;;;5.50;3.00;;;;;;;;;;10210835;29;20039;-80
2023/08/01 03:13:56;;;;;;;5.47;3.90;;;;;;;;;;10227463;28;20030;-82
2023/08/01 03:18:57;;;;;;;7.82;4.00;;;;;;;;;;10254310;23;20641;-69
2023/08/01 03:23:57;;;;;;;4.75;3.70;;;;;;;;;;10281394;28;20192;-69
2023/08/01 03:28:57;;;;;;;9.50;3.70;;;;;;;;;;10298114;28;20039;-69
2023/08/01 03:34:00;;;;;;;5.30;3.63;;;;;;;;;;10297968;28;20216;-69
2023/08/01 03:39:02;;;;;;;9.98;4.30;;;;;;;;;;10297776;28;20328;-69
2023/08/01 03:44:03;;;;;;;6.95;5.65;;;;;;;;;;10297908;28;20300;-69
2023/08/01 03:49:03;;;;;;;9.88;6.22;;;;;;;;;;10298312;28;20146;-69
2023/08/01 03:54:03;;;;;;;10.50;7.57;;;;;;;;;;10298235;28;20045;-69
2023/08/01 03:59:04;;;;;;;13.88;7.28;;;;;;;;;;10297953;28;20347;-68
2023/08/01 04:04:05;;;;;;;10.10;5.10;;;;;;;;;;10297469;28;20208;-68
2023/08/01 04:09:06;;;;;;;6.22;4.65;;;;;;;;;;10295546;28;20027;-68
2023/08/01 04:14:06;;;;;;;5.03;4.50;;;;;;;;;;10265168;28;20019;-68
2023/08/01 04:19:07;;;;;;;5.88;3.53;;;;;;;;;;10287851;28;20035;-69
2023/08/01 04:24:07;;;;;;;8.80;4.30;;;;;;;;;;10288529;28;20023;-68
2023/08/01 04:29:07;;;;;;;8.73;4.20;;;;;;;;;;10282547;28;20034;-68
2023/08/01 04:34:07;;;;;;;9.67;4.63;;;;;;;;;;10293972;28;20260;-68
2023/08/01 04:39:08;;;;;;;11.30;5.72;;;;;;;;;;10292926;28;20014;-67
2023/08/01 04:44:08;;;;;;;9.80;5.67;;;;;;;;;;10293913;28;20240;-68
2023/08/01 04:49:08;;;;;;;9.45;4.95;;;;;;;;;;10292593;28;20065;-68
2023/08/01 04:54:09;;;;;;;7.53;5.57;;;;;;;;;;10287905;28;20279;-68
2023/08/01 04:59:09;;;;;;;15.18;6.70;;;;;;;;;;10273348;28;20019;-69
2023/08/01 05:04:09;;;;;;;9.60;5.38;;;;;;;;;;10286136;28;20219;-68
2023/08/01 05:09:09;;;;;;;6.13;4.82;;;;;;;;;;10286045;28;20022;-67
2023/08/01 05:14:10;;;;;;;11.37;4.67;;;;;;;;;;10287962;28;20114;-67
2023/08/01 05:19:10;;;;;;;6.70;3.10;;;;;;;;;;10282854;28;20347;-68
2023/08/01 05:24:10;;;;;;;10.50;3.70;;;;;;;;;;10281567;28;20023;-68
2023/08/01 05:29:10;;;;;;;9.48;3.92;;;;;;;;;;10282460;28;20022;-69
2023/08/01 05:34:11;;;;;;;4.60;3.38;;;;;;;;;;10281422;28;20019;-69
2023/08/01 05:39:11;;;;;;;4.07;3.00;;;;;;;;;;10281051;28;20015;-68
2023/08/01 05:44:11;;;;;;;3.63;2.40;;;;;;;;;;10282901;28;20194;-68
2023/08/01 05:49:11;;;;;;;6.55;3.00;;;;;;;;;;10288313;28;20018;-68
2023/08/01 05:54:12;;;;;;;9.15;2.92;;;;;;;;;;10288318;28;20019;-67
2023/08/01 05:59:12;;;;;;;5.38;3.70;;;;;;;;;;10283921;28;20014;-67
2023/08/01 06:04:12;;;;;;;9.02;2.88;;;;;;;;;;10290063;28;20042;-67
2023/08/01 06:09:12;;;;;;;3.03;2.35;;;;;;;;;;10284853;28;20046;-68
2023/08/01 06:14:13;;;;;;;7.07;2.85;;;;;;;;;;10291067;28;20251;-68
2023/08/01 06:19:13;;;;;;;4.50;2.40;;;;;;;;;;10277938;28;20039;-68
2023/08/01 06:24:13;;;;;;;7.97;2.30;;;;;;;;;;10278294;28;20046;-69
2023/08/01 06:29:13;;;;;;;7.97;2.80;;;;;;;;;;10277276;28;20065;-68
2023/08/01 06:34:14;;;;;;;5.85;2.33;;;;;;;;;;10282753;28;20018;-68
2023/08/01 06:39:14;;;;;;;13.98;2.65;;;;;;;;;;10285195;28;20073;-68
2023/08/01 06:44:14;;;;;;;3.95;2.38;;;;;;;;;;10287473;28;20323;-68
2023/08/01 06:49:14;;;;;;;5.93;2.70;;;;;;;;;;10289349;28;20057;-68
2023/08/01 06:54:15;;;;;;;4.85;2.80;;;;;;;;;;10284442;28;20241;-68
2023/08/01 06:59:15;;;;;;;8.18;2.80;;;;;;;;;;10284533;28;20035;-68
2023/08/01 07:04:15;;;;;;;5.20;2.27;;;;;;;;;;10279185;28;20086;-68
2023/08/01 07:09:16;;;;;;;10.77;2.70;;;;;;;;;;10274414;28;20241;-68
2023/08/01 07:14:16;;;;;;;10.15;2.40;;;;;;;;;;10284035;28;20026;-67
2023/08/01 07:19:16;;;;;;;5.45;2.05;;;;;;;;;;10269337;28;20058;-68
2023/08/01 07:24:16;;;;;;;8.95;2.38;;;;;;;;;;10298550;28;20231;-67
2023/08/01 07:29:17;;;;;;;5.60;2.33;;;;;;;;;;10287119;28;20324;-68
2023/08/01 07:34:17;;;;;;;12.18;2.47;;;;;;;;;;10299022;28;20547;-67
2023/08/01 07:39:17;;;;;;;4.82;1.95;;;;;;;;;;10299155;28;20054;-67
2023/08/01 07:44:17;;;;;;;10.40;3.63;;;;;;;;;;10298559;28;20015;-68
2023/08/01 07:49:18;;;;;;;3.83;2.13;;;;;;;;;;10299108;28;20285;-68
2023/08/01 07:54:18;;;;;;;3.05;2.05;;;;;;;;;;10297573;28;20030;-67
2023/08/01 07:59:18;;;;;;;5.00;1.80;;;;;;;;;;10293346;28;20057;-68
2023/08/01 08:04:18;;;;;;;6.55;2.20;;;;;;;;;;10291355;28;20186;-68
2023/08/01 08:09:19;;;;;;;8.15;2.10;;;;;;;;;;10286290;28;20120;-68
2023/08/01 08:14:21;;;;;;;3.58;1.92;;;;;;;;;;10292104;28;20046;-68
2023/08/01 08:19:24;;;;;;;7.93;2.22;;;;;;;;;;10295840;28;20111;-67
2023/08/01 08:24:24;;;;;;;6.43;2.38;;;;;;;;;;10288157;28;20058;-68
2023/08/01 08:29:24;;;;;;;8.10;2.08;;;;;;;;;;10291450;28;20194;-67
2023/08/01 08:34:25;;;;;;;9.38;2.40;;;;;;;;;;10263006;28;20026;-69
2023/08/01 08:39:25;;;;;;;7.97;1.70;;;;;;;;;;10281767;28;20025;-69
2023/08/01 08:44:29;;;;;;;6.40;1.98;;;;;;;;;;10257818;28;20037;-68
2023/08/01 08:49:29;;;;;;;10.50;2.03;;;;;;;;;;10282371;28;20216;-69
2023/08/01 08:54:30;;;;;;;5.20;1.77;;;;;;;;;;10293338;28;20065;-69
2023/08/01 08:59:30;;;;;;;7.40;2.00;;;;;;;;;;10272708;28;20210;-67
2023/08/01 09:04:31;;;;;;;3.97;1.67;;;;;;;;;;10277792;28;20018;-68
2023/08/01 09:09:32;;;;;;;6.63;1.50;;;;;;;;;;10292663;28;20256;-68
2023/08/01 09:14:32;;;;;;;3.30;1.92;;;;;;;;;;10292865;28;20169;-68
2023/08/01 09:19:33;;;;;;;9.65;1.90;;;;;;;;;;10274106;28;20379;-68
2023/08/01 09:24:33;;;;;;;7.82;1.80;;;;;;;;;;10291523;28;20023;-68
2023/08/01 09:29:33;;;;;;;3.97;1.50;;;;;;;;;;10286978;28;20280;-68
2023/08/01 09:34:33;;;;;;;5.43;1.80;;;;;;;;;;10291932;28;20031;-68
2023/08/01 09:39:34;;;;;;;6.88;1.67;;;;;;;;;;10292205;28;20027;-68
2023/08/01 09:44:34;;;;;;;5.93;1.90;;;;;;;;;;10287284;28;20034;-68
2023/08/01 09:49:36;;;;;;;2.20;1.55;;;;;;;;;;10292764;28;20089;-69
2023/08/01 09:54:36;;;;;;;5.28;1.80;;;;;;;;;;10287425;28;20335;-69
2023/08/01 09:59:37;;;;;;;2.45;1.38;;;;;;;;;;10292346;28;20386;-69
2023/08/01 10:04:40;;;;;;;1.65;1.55;;;;;;;;;;10290833;28;20031;-69
2023/08/01 10:09:43;;;;;;;3.05;2.00;;;;;;;;;;10289128;28;20289;-69
2023/08/01 10:14:43;;;;;;;3.45;1.55;;;;;;;;;;10282519;28;20037;-69
2023/08/01 10:19:44;;;;;;;3.17;1.90;;;;;;;;;;10269927;28;20432;-69
2023/08/01 10:24:45;;;;;;;7.83;1.93;;;;;;;;;;10286891;28;20202;-68
2023/08/01 10:29:56;;;;;;;6.78;1.65;;;;;;;;;;10279865;28;20277;-68
2023/08/01 10:34:56;;;;;;;6.43;2.10;;;;;;;;;;10289080;28;20034;-69
2023/08/01 10:39:59;;;;;;;3.60;1.88;;;;;;;;;;10287970;28;20026;-67
2023/08/01 10:45:00;;;;;;;2.63;1.70;;;;;;;;;;10285329;28;20023;-68
2023/08/01 10:50:00;;;;;;;2.90;1.98;;;;;;;;;;10289564;28;20339;-68
2023/08/01 10:55:01;;;;;;;3.22;1.80;;;;;;;;;;10288738;28;20096;-68
2023/08/01 11:00:04;;;;;;;4.28;1.60;;;;;;;;;;10285675;28;20086;-68
2023/08/01 11:05:06;;;;;;;4.35;1.85;;;;;;;;;;10296939;28;20019;-68
2023/08/01 11:10:06;;;;;;;2.67;1.77;;;;;;;;;;10289637;28;20053;-68
2023/08/01 11:15:08;;;;;;;4.32;1.65;;;;;;;;;;10296200;28;20333;-69
2023/08/01 11:20:10;;;;;;;5.38;2.20;;;;;;;;;;10281054;28;20050;-69
2023/08/01 11:25:10;;;;;;;9.05;2.30;;;;;;;;;;10286864;28;20049;-69
2023/08/01 11:30:11;;;;;;;4.82;3.47;;;;;;;;;;10295492;28;20324;-69
2023/08/01 11:35:16;;;;;;;2.75;2.30;;;;;;;;;;10293403;28;20058;-69
2023/08/01 11:40:17;;;;;;;8.93;2.73;;;;;;;;;;10298255;28;20050;-69
2023/08/01 11:45:18;;;;;;;4.93;2.50;;;;;;;;;;10285843;28;20082;-68
2023/08/01 11:50:25;;;;;;;4.43;2.70;;;;;;;;;;10297086;28;20360;-68
2023/08/01 11:55:26;;;;;;;8.55;3.08;;;;;;;;;;10292596;28;20209;-68
2023/08/01 12:00:27;;;;;;;6.30;3.40;;;;;;;;;;10281480;28;20027;-69
2023/08/01 12:05:27;;;;;;;8.77;2.67;;;;;;;;;;10292620;28;20015;-68
2023/08/01 12:10:36;;;;;;;4.35;2.80;;;;;;;;;;10288232;28;20026;-67
2023/08/01 12:15:36;;;;;;;4.53;3.13;;;;;;;;;;10294775;28;20248;-69
2023/08/01 12:20:36;;;;;;;7.32;2.78;;;;;;;;;;10281777;28;20086;-68
2023/08/01 12:25:37;;;;;;;5.22;2.65;;;;;;;;;;10283383;28;20191;-69
2023/08/01 12:30:39;;;;;;;4.22;2.45;;;;;;;;;;10294414;28;20033;-68
2023/08/01 12:35:40;;;;;;;4.10;2.50;;;;;;;;;;10291078;28;20019;-67
2023/08/01 12:40:41;;;;;;;3.10;2.20;;;;;;;;;;10270489;28;20027;-69
2023/08/01 12:45:41;;;;;;;6.13;2.22;;;;;;;;;;10282965;28;20312;-69
2023/08/01 12:50:45;;;;;;;6.63;2.78;;;;;;;;;;10285324;28;20371;-68
2023/08/01 12:55:49;;;;;;;5.18;2.58;;;;;;;;;;10287894;28;20378;-69
2023/08/01 13:00:49;;;;;;;6.90;2.35;;;;;;;;;;10291464;28;20232;-69
2023/08/01 13:05:50;;;;;;;10.38;2.80;;;;;;;;;;10287917;28;20377;-69
2023/08/01 13:10:50;;;;;;;7.88;2.75;;;;;;;;;;10292282;28;20193;-68
2023/08/01 13:15:51;;;;;;;3.73;2.17;;;;;;;;;;10291368;28;20212;-68
2023/08/01 13:20:51;;;;;;;3.57;2.43;;;;;;;;;;10284815;28;20341;-68
2023/08/01 13:25:51;;;;;;;4.05;2.47;;;;;;;;;;10280874;28;20607;-68
2023/08/01 13:30:52;;;;;;;4.18;2.20;;;;;;;;;;10287300;28;20019;-69
2023/08/01 13:35:53;;;;;;;3.58;2.78;;;;;;;;;;10293075;28;20030;-69
2023/08/01 13:40:53;;;;;;;3.90;2.60;;;;;;;;;;10288987;28;20316;-68
2023/08/01 13:45:54;;;;;;;7.22;2.40;;;;;;;;;;10285095;28;20075;-68
2023/08/01 13:50:57;;;;;;;2.95;2.50;;;;;;;;;;10284083;28;20098;-69
2023/08/01 13:55:57;;;;;;;3.05;2.38;;;;;;;;;;10284769;28;20037;-68
2023/08/01 14:01:01;;;;;;;5.20;3.17;;;;;;;;;;10283303;28;20261;-69
2023/08/01 14:06:09;;;;;;;5.53;2.83;;;;;;;;;;10275083;28;20323;-68
2023/08/01 14:11:09;;;;;;;5.25;2.30;;;;;;;;;;10276391;28;20015;-68
2023/08/01 14:16:09;;;;;;;8.23;2.92;;;;;;;;;;10284918;28;20050;-69
2023/08/01 14:21:10;;;;;;;5.03;2.92;;;;;;;;;;10279098;28;20055;-69
2023/08/01 14:26:10;;;;;;;11.32;4.03;;;;;;;;;;10269624;28;20027;-68
2023/08/01 14:31:11;;;;;;;3.05;2.60;;;;;;;;;;10289170;28;20019;-69
2023/08/01 14:36:12;;;;;;;6.35;2.90;;;;;;;;;;10283980;28;20057;-68
2023/08/01 14:41:14;;;;;;;3.45;2.25;;;;;;;;;;10287915;28;20309;-69
2023/08/01 14:46:15;;;;;;;4.50;2.22;;;;;;;;;;10284709;28;20014;-70
2023/08/01 14:51:15;;;;;;;6.50;2.78;;;;;;;;;;10286080;28;20332;-68
2023/08/01 14:56:15;;;;;;;7.28;2.28;;;;;;;;;;10279896;28;20015;-69
2023/08/01 15:01:16;;;;;;;8.38;2.70;;;;;;;;;;10286906;28;20204;-68
2023/08/01 15:06:16;;;;;;;5.55;2.17;;;;;;;;;;10267128;28;20087;-68
2023/08/01 15:11:16;;;;;;;7.32;2.58;;;;;;;;;;10288121;28;20074;-68
2023/08/01 15:16:17;;;;;;;3.95;2.30;;;;;;;;;;10287750;28;20051;-69
2023/08/01 15:21:17;;;;;;;5.93;2.23;;;;;;;;;;10281439;28;20249;-68
2023/08/01 15:26:17;;;;;;;6.13;2.63;;;;;;;;;;10272412;28;20066;-68
2023/08/01 15:31:18;;;;;;;6.50;2.67;;;;;;;;;;10286992;28;20077;-68
2023/08/01 15:36:24;;;;;;;4.70;2.63;;;;;;;;;;10277551;28;20200;-68
2023/08/01 15:41:25;;;;;;;5.22;2.92;;;;;;;;;;10289069;28;20316;-69
2023/08/01 15:46:25;;;;;;;6.82;2.78;;;;;;;;;;10292108;28;20236;-68
2023/08/01 15:51:25;;;;;;;9.75;2.70;;;;;;;;;;10295453;28;20015;-68
2023/08/01 15:56:26;;;;;;;5.43;3.67;;;;;;;;;;10292041;28;20077;-68
2023/08/01 16:01:26;;;;;;;2.92;2.05;;;;;;;;;;10292708;28;20085;-68
2023/08/01 16:06:26;;;;;;;5.95;2.83;;;;;;;;;;10280699;28;20033;-68
2023/08/01 16:11:27;;;;;;;5.47;2.73;;;;;;;;;;10283190;28;20034;-68
2023/08/01 16:16:27;;;;;;;7.70;2.78;;;;;;;;;;10284654;28;20022;-68
2023/08/01 16:21:28;;;;;;;4.25;2.30;;;;;;;;;;10274481;28;20257;-68
2023/08/01 16:26:28;;;;;;;5.40;2.25;;;;;;;;;;10287266;28;20232;-67
2023/08/01 16:31:28;;;;;;;4.13;2.55;;;;;;;;;;10266628;28;20019;-68
2023/08/01 16:36:29;;;;;;;4.00;2.87;;;;;;;;;;10283990;28;20374;-68
2023/08/01 16:41:29;;;;;;;4.80;2.67;;;;;;;;;;10295363;28;20208;-68
2023/08/01 16:46:29;;;;;;;11.85;3.00;;;;;;;;;;10287018;28;20019;-68
2023/08/01 16:51:29;;;;;;;5.90;2.83;;;;;;;;;;10283512;28;20023;-67
2023/08/01 16:56:30;;;;;;;9.05;2.90;;;;;;;;;;10262616;28;20102;-68
2023/08/01 17:01:31;;;;;;;5.15;2.80;;;;;;;;;;10288238;28;20037;-68
2023/08/01 17:06:31;;;;;;;5.10;3.08;;;;;;;;;;10286688;28;20035;-68
2023/08/01 17:11:31;;;;;;;3.65;2.60;;;;;;;;;;10282382;28;20352;-68
2023/08/01 17:16:32;;;;;;;6.97;3.38;;;;;;;;;;10283241;28;20213;-68
2023/08/01 17:21:32;;;;;;;6.93;3.42;;;;;;;;;;10286272;28;20027;-69
2023/08/01 17:26:32;;;;;;;3.83;3.23;;;;;;;;;;10287083;28;20038;-68
2023/08/01 17:31:35;;;;;;;5.50;3.33;;;;;;;;;;10280912;28;20021;-68
2023/08/01 17:36:37;;;;;;;8.45;3.50;;;;;;;;;;10290230;28;20194;-68
2023/08/01 17:41:37;;;;;;;6.18;4.13;;;;;;;;;;10263458;28;20377;-68
2023/08/01 17:46:38;;;;;;;5.45;2.95;;;;;;;;;;10291624;28;20023;-68
2023/08/01 17:51:38;;;;;;;4.63;3.60;;;;;;;;;;10266307;28;20046;-69
2023/08/01 17:56:38;;;;;;;8.02;4.40;;;;;;;;;;10287439;28;20316;-67
2023/08/01 18:01:39;;;;;;;5.05;3.72;;;;;;;;;;10259251;28;20055;-69
2023/08/01 18:06:39;;;;;;;8.85;3.90;;;;;;;;;;10279500;28;20042;-69
2023/08/01 18:11:39;;;;;;;5.45;3.08;;;;;;;;;;10288210;28;20030;-68
2023/08/01 18:16:39;;;;;;;4.20;3.25;;;;;;;;;;10288421;28;20347;-68
2023/08/01 18:21:40;;;;;;;6.80;3.77;;;;;;;;;;10286362;28;20026;-68
2023/08/01 18:26:41;;;;;;;5.55;3.88;;;;;;;;;;10261550;28;20066;-68
2023/08/01 18:31:42;;;;;;;8.38;3.33;;;;;;;;;;10285042;28;20118;-68
2023/08/01 18:36:42;;;;;;;7.87;3.93;;;;;;;;;;10285562;28;20189;-68
2023/08/01 18:41:42;;;;;;;5.43;3.72;;;;;;;;;;10285997;28;20058;-68
2023/08/01 18:46:43;;;;;;;13.30;4.13;;;;;;;;;;10292503;28;20460;-69
2023/08/01 18:51:43;;;;;;;6.30;3.77;;;;;;;;;;10281045;28;20712;-68
2023/08/01 18:56:43;;;;;;;16.57;6.30;;;;;;;;;;10269192;28;20616;-69
2023/08/01 19:01:44;;;;;;;8.57;4.57;;;;;;;;;;10250677;28;20298;-69
2023/08/01 19:06:44;;;;;;;7.40;3.87;;;;;;;;;;10261438;28;20409;-69
2023/08/01 19:11:45;;;;;;;8.70;5.22;;;;;;;;;;10266219;28;20022;-77
2023/08/01 19:16:45;;;;;;;8.10;3.90;;;;;;;;;;10251745;28;20046;-74
2023/08/01 19:21:45;;;;;;;6.83;4.17;;;;;;;;;;10272891;28;20293;-73
2023/08/01 19:26:46;;;;;;;16.02;4.57;;;;;;;;;;10255817;28;20032;-75
2023/08/01 19:31:46;;;;;;;8.63;3.70;;;;;;;;;;10283294;28;20078;-75
2023/08/01 19:36:48;;;;;;;10.98;4.85;;;;;;;;;;10282447;28;20035;-69
2023/08/01 19:41:48;;;;;;;11.63;4.47;;;;;;;;;;10274077;28;20030;-70
2023/08/01 19:46:49;;;;;;;12.15;4.88;;;;;;;;;;10292731;28;20312;-76
2023/08/01 19:51:49;;;;;;;7.67;3.90;;;;;;;;;;10270314;28;20027;-77
2023/08/01 19:56:50;;;;;;;4.53;3.70;;;;;;;;;;10264102;28;20348;-76
2023/08/01 20:01:51;;;;;;;7.38;3.65;;;;;;;;;;10280856;28;20086;-74
2023/08/01 20:06:51;;;;;;;9.75;4.63;;;;;;;;;;10285078;28;20010;-74
2023/08/01 20:11:51;;;;;;;13.03;4.93;;;;;;;;;;10291764;28;20030;-73
2023/08/01 20:16:52;;;;;;;7.30;4.68;;;;;;;;;;10287135;28;20642;-72
2023/08/01 20:21:53;;;;;;;6.65;3.95;;;;;;;;;;10288462;28;20433;-75
2023/08/01 20:26:53;;;;;;;9.45;5.40;;;;;;;;;;10279574;28;20034;-69
2023/08/01 20:31:53;;;;;;;6.68;4.35;;;;;;;;;;10264287;28;20031;-69
2023/08/01 20:36:54;;;;;;;9.50;5.28;;;;;;;;;;10279408;28;20240;-69
2023/08/01 20:41:54;;;;;;;9.80;5.20;;;;;;;;;;10276048;28;20094;-68
2023/08/01 20:46:54;;;;;;;14.93;5.47;;;;;;;;;;10282951;28;20272;-70
2023/08/01 20:51:56;;;;;;;12.02;5.28;;;;;;;;;;10282448;28;20091;-68
2023/08/01 20:56:56;;;;;;;7.97;4.13;;;;;;;;;;10286733;28;20094;-69
2023/08/01 21:01:56;;;;;;;8.67;4.97;;;;;;;;;;10285902;28;20052;-69
2023/08/01 21:06:56;;;;;;;8.33;4.90;;;;;;;;;;10283842;28;20023;-68
2023/08/01 21:11:57;;;;;;;8.90;4.97;;;;;;;;;;10289290;28;20252;-69
2023/08/01 21:16:57;;;;;;;6.80;4.85;;;;;;;;;;10275145;28;20055;-68
2023/08/01 21:21:58;;;;;;;8.50;4.65;;;;;;;;;;10291035;28;20240;-68
2023/08/01 21:26:58;;;;;;;12.80;5.30;;;;;;;;;;10288768;28;20288;-68
2023/08/01 21:31:58;;;;;;;10.60;5.70;;;;;;;;;;10279064;28;20018;-68
2023/08/01 21:36:58;;;;;;;9.30;5.47;;;;;;;;;;10280835;28;20202;-69
2023/08/01 21:41:59;;;;;;;7.22;4.85;;;;;;;;;;10271032;28;20374;-69
2023/08/01 21:46:59;;;;;;;12.77;5.10;;;;;;;;;;10257146;28;20094;-68
2023/08/01 21:51:59;;;;;;;7.15;4.85;;;;;;;;;;10260720;28;20267;-70
2023/08/01 21:57:00;;;;;;;7.73;4.40;;;;;;;;;;10278591;28;20089;-69
2023/08/01 22:02:00;;;;;;;7.75;3.95;;;;;;;;;;10283401;28;20027;-69
2023/08/01 22:07:01;;;;;;;5.15;3.65;;;;;;;;;;10286417;28;20085;-69
2023/08/01 22:12:01;;;;;;;9.48;3.80;;;;;;;;;;10279084;28;20335;-69
2023/08/01 22:17:01;;;;;;;4.45;3.70;;;;;;;;;;10275722;28;20068;-69
2023/08/01 22:22:01;;;;;;;5.15;4.15;;;;;;;;;;10282143;28;20033;-69
2023/08/01 22:27:02;;;;;;;4.85;3.85;;;;;;;;;;10274955;28;20089;-69
2023/08/01 22:32:02;;;;;;;5.70;3.77;;;;;;;;;;10266143;28;20038;-69
2023/08/01 22:37:02;;;;;;;7.23;4.33;;;;;;;;;;10283348;28;20065;-68
2023/08/01 22:42:03;;;;;;;6.37;4.53;;;;;;;;;;10275182;28;20026;-69
2023/08/01 22:47:03;;;;;;;5.60;4.50;;;;;;;;;;10280825;28;20049;-69
2023/08/01 22:52:04;;;;;;;6.00;4.40;;;;;;;;;;10283598;28;20027;-68
2023/08/01 22:57:04;;;;;;;6.72;4.90;;;;;;;;;;10285019;28;20328;-68
2023/08/01 23:02:04;;;;;;;7.40;4.15;;;;;;;;;;10291313;28;20034;-68
2023/08/01 23:07:05;;;;;;;8.77;4.63;;;;;;;;;;10289049;28;20074;-69
2023/08/01 23:12:05;;;;;;;5.40;4.70;;;;;;;;;;10263729;28;20027;-69
2023/08/01 23:17:06;;;;;;;5.18;4.28;;;;;;;;;;10263979;28;20051;-69
2023/08/01 23:22:07;;;;;;;8.77;5.10;;;;;;;;;;10289038;28;20035;-69
2023/08/01 23:27:09;;;;;;;12.88;4.82;;;;;;;;;;10283196;28;20038;-69
2023/08/01 23:32:10;;;;;;;7.03;4.90;;;;;;;;;;10284670;28;20029;-69
2023/08/01 23:37:10;;;;;;;9.00;4.65;;;;;;;;;;10280936;28;20197;-67
2023/08/01 23:42:10;;;;;;;7.50;4.53;;;;;;;;;;10254959;28;20217;-69
2023/08/01 23:47:11;;;;;;;5.05;4.22;;;;;;;;;;10258574;28;20071;-67
2023/08/01 23:52:11;;;;;;;7.65;4.47;;;;;;;;;;10275729;28;20041;-68
2023/08/01 23:57:11;;;;;;;12.35;4.70;;;;;;;;;;10281024;28;20041;-69
